Terminal Aerodrome Forecast
Issued by NWS

Current Version | Previous Version | Text Only | Print | Product List | Glossary On
Versions: 1 2 3 4 5 6 7 8 9 10 11 12 13 14 15 16 17 18 19 20 21 22 23 24 25 26
000
FTUS43 KDVN 232300
TAFBRL
TAF
KBRL 232320Z 2400/2424 16005KT 1SM -DZ BR OVC002
     FM240100 12003KT 1/2SM -DZ FG VV002
     FM240600 31014G20KT 3SM -RA BR OVC008
     FM241400 32018G27KT 1SM -SN BR OVC007
     FM241800 28017G26KT P6SM OVC025=

USA.gov is the U.S. government's official web portal to all federal, state and local government web resources and services.